ADDS METAR Data INFO
IDs: Format: Raw Decoded Include TAF

Data at: 1014 UTC 14 Dec 2017

KSFM 140956Z AUTO 23003KT 10SM OVC075 M09/M13 A2955 RMK AO2 SLP015 T10941128 FZRANO
KSFM 140856Z AUTO 24004KT 10SM BKN085 M09/M13 A2955 RMK AO2 SLP012 T10941128 50011 FZRANO
KSFM 140756Z AUTO 23008KT 10SM BKN100 M09/M13 A2955 RMK AO2 SLP014 T10941133 FZRANO
KSFM 140656Z AUTO 00000KT 10SM CLR M11/M14 A2951 RMK AO2 SLP001 T11061139 FZRANO
KSFM 140556Z AUTO 28003KT 10SM CLR M11/M14 A2951 RMK AO2 SLP001 T11061139 11089 21106 53027 FZRANO
KSFM 140456Z AUTO VRB05KT 10SM CLR M11/M14 A2949 RMK AO2 SLP993 T11061144 FZRANO
KSFM 140356Z AUTO 26013G19KT 10SM CLR M09/M14 A2945 RMK AO2 SLP981 T10941144 410171094 FZRANO
KSFM 140256Z AUTO 26009G19KT 10SM CLR M09/M14 A2943 RMK AO2 PK WND 27027/0208 SLP974 T10941144 53032 FZRANO
KSFM 140156Z AUTO 27016G25KT 10SM CLR M09/M14 A2939 RMK AO2 PK WND 27028/0143 SLP960 T10941139 FZRANO
KSFM 140056Z AUTO 26013G19KT 10SM CLR M09/M14 A2935 RMK AO2 SLP946 T10941139 FZRANO
KSFM 132356Z AUTO 27009G21KT 10SM CLR M09/M14 A2934 RMK AO2 SLP942 60000 T10891139 11039 21089 53030 FZRANO
KSFM 132256Z AUTO 27014G20KT 10SM FEW039 M08/M13 A2930 RMK AO2 SLP930 T10831133 FZRANO
KSFM 132156Z AUTO 27014G23KT 10SM CLR M08/M13 A2926 RMK AO2 PK WND 28026/2125 SLP916 T10781128 FZRANO
KSFM 132056Z AUTO 27014G22KT 10SM OVC039 M07/M12 A2925 RMK AO2 SNE29 SLP910 P0000 60000 T10671117 51033 FZRANO
KSFM 132005Z AUTO 27017G22KT 9SM -SN SCT026 OVC031 M06/M11 A2922 RMK AO2 P0000 FZRANO
KSFM 131956Z AUTO 27020G25KT 9SM -SN BKN026 OVC031 M06/M10 A2922 RMK AO2 PK WND 28029/1908 SNB29 SLP902 P0000 T10561100 FZRANO
KSFM 131941Z AUTO 27016G25KT 7SM -SN BKN026 M05/M09 A2921 RMK AO2 PK WND 28029/1908 SNB29 P0000 FZRANO
KSFM 131856Z AUTO 26019G23KT 10SM BKN030 OVC036 M04/M09 A2918 RMK AO2 PK WND 27028/1809 SLP886 T10441089 FZRANO
KSFM 131756Z AUTO 29020G29KT 10SM CLR M04/M11 A2915 RMK AO2 PK WND 27031/1729 SLP877 T10441111 11028 21067 55003 FZRANO
KSFM 131656Z AUTO 28015G24KT 10SM SCT055 M03/M09 A2914 RMK AO2 PK WND 28026/1641 SLP873 T10331089 FZRANO
KSFM 131556Z AUTO 27016G22KT 10SM FEW026 OVC049 M03/M08 A2915 RMK AO2 SLP876 T10331078 FZRANO
KSFM 131456Z AUTO 28015G19KT 10SM FEW047 M03/M08 A2916 RMK AO2 SLP880 T10331078 51006 FZRANO
KSFM 131356Z AUTO 27011KT 10SM FEW055 M05/M08 A2916 RMK AO2 SLP879 T10501083 FZRANO
KSFM 131256Z AUTO VRB05KT 10SM CLR M06/M08 A2915 RMK AO2 SLP877 T10611083 FZRANO
KSFM 131156Z AUTO 25004KT 10SM CLR M06/M08 A2914 RMK AO2 SLP874 60001 70019 T10611078 11017 21061 58006 FZRANO
KSFM 131056Z AUTO 26005KT 10SM CLR M05/M07 A2916 RMK AO2 SLP880 T10501067 FZRANO
KSFM 130956Z AUTO 28012G17KT 10SM BKN120 M03/M06 A2915 RMK AO2 SLP877 T10331056 FZRANO
KSFM 130928Z AUTO 27011G20KT 10SM FEW028 BKN034 OVC120 M02/M04 A2916 RMK AO2 FZRANO
KSFM 130856Z AUTO 27011G16KT 10SM OVC026 M02/M03 A2916 RMK AO2 SLP879 60001 T10171028 58003 FZRANO
KSFM 130756Z AUTO 25007KT 10SM BKN024 M02/M02 A2917 RMK AO2 SLP884 P0001 T10171022 FZRANO
KSFM 130656Z AUTO 00000KT 10SM FEW060 SCT090 M04/M04 A2917 RMK AO2 SLP883 T10391044 FZRANO
KSFM 130556Z AUTO 23003KT 10SM SCT070 M04/M04 A2917 RMK AO2 SLP884 P0001 60003 T10391044 11017 21039 57027 FZRANO
KSFM 130456Z AUTO 25003KT 10SM BKN070 M03/M03 A2920 RMK AO2 SLP893 P0001 T10281033 FZRANO
KSFM 130356Z AUTO 36004KT 10SM CLR M02/M03 A2923 RMK AO2 SNE09 SLP902 P0000 T10221033 410171067 FZRANO TSNO
KSFM 130319Z AUTO 30005KT 10SM FEW013 SCT050 M02/M03 A2923 RMK AO2 SNE09 P0000 FZRANO
KSFM 130253Z AUTO 33004KT 9SM -SN OVC013 M02/M03 A2925 RMK AO2 UPE37SNB0159E11B37 P0001 FZRANO
KSFM 130214Z AUTO 32004KT 10SM UP OVC007 M02/M03 A2926 RMK AO2 SNB0159E11 P0000 FZRANO
KSFM 130156Z AUTO 33006KT 6SM UP BR OVC005 M03/M03 A2928 RMK AO2 UPB56SNB27E56 SLP921 P0000 T10281033 FZRANO
KSFM 130056Z AUTO 35007KT 10SM OVC005 M03/M03 A2930 RMK AO2 UPB21E40SNE21 SLP927 P0000 T10281033 FZRANO
KSFM 122356Z AUTO 34008KT 9SM -SN OVC005 M03/M03 A2934 RMK AO2 SNB51 SLP940 P0001 60007 T10281033 11022 21056 56045 FZRANO
KSFM 122256Z AUTO 02008KT 10SM OVC005 M02/M03 A2936 RMK AO2 UPB41E50SNE41 SLP950 P0000 T10221028 FZRANO